sensor_id;sensor_type;location;lat;lon;timestamp;P1;durP1;ratioP1;P2;durP2;ratioP2
57828;SDS011;43657;52.698;6.314;2023-09-12T00:00:53;103.50;;;72.82;;
57828;SDS011;43657;52.698;6.314;2023-09-12T00:03:19;117.07;;;87.30;;
57828;SDS011;43657;52.698;6.314;2023-09-12T00:05:52;132.00;;;88.90;;
57828;SDS011;43657;52.698;6.314;2023-09-12T00:08:19;136.10;;;91.38;;
57828;SDS011;43657;52.698;6.314;2023-09-12T00:10:44;144.95;;;83.63;;
57828;SDS011;43657;52.698;6.314;2023-09-12T00:13:10;107.80;;;77.53;;
57828;SDS011;43657;52.698;6.314;2023-09-12T00:15:36;96.20;;;83.80;;
57828;SDS011;43657;52.698;6.314;2023-09-12T00:18:01;228.68;;;91.63;;
57828;SDS011;43657;52.698;6.314;2023-09-12T00:20:27;111.88;;;80.63;;
57828;SDS011;43657;52.698;6.314;2023-09-12T00:22:53;173.07;;;91.07;;
57828;SDS011;43657;52.698;6.314;2023-09-12T00:25:19;128.02;;;88.40;;
57828;SDS011;43657;52.698;6.314;2023-09-12T00:27:45;105.85;;;81.97;;
57828;SDS011;43657;52.698;6.314;2023-09-12T00:30:11;121.65;;;87.18;;
57828;SDS011;43657;52.698;6.314;2023-09-12T00:32:39;109.95;;;84.20;;
57828;SDS011;43657;52.698;6.314;2023-09-12T00:35:05;287.20;;;105.18;;
57828;SDS011;43657;52.698;6.314;2023-09-12T00:37:31;106.07;;;76.45;;
57828;SDS011;43657;52.698;6.314;2023-09-12T00:39:56;101.43;;;79.70;;
57828;SDS011;43657;52.698;6.314;2023-09-12T00:42:24;80.55;;;71.90;;
57828;SDS011;43657;52.698;6.314;2023-09-12T00:44:50;157.45;;;90.28;;
57828;SDS011;43657;52.698;6.314;2023-09-12T00:47:16;142.38;;;85.22;;
57828;SDS011;43657;52.698;6.314;2023-09-12T00:49:42;194.40;;;89.47;;
57828;SDS011;43657;52.698;6.314;2023-09-12T00:52:09;83.03;;;72.55;;
57828;SDS011;43657;52.698;6.314;2023-09-12T00:54:36;76.47;;;66.82;;
57828;SDS011;43657;52.698;6.314;2023-09-12T00:57:01;140.70;;;79.15;;
57828;SDS011;43657;52.698;6.314;2023-09-12T00:59:27;82.35;;;69.75;;
57828;SDS011;43657;52.698;6.314;2023-09-12T01:01:53;75.55;;;64.47;;
57828;SDS011;43657;52.698;6.314;2023-09-12T01:04:19;102.30;;;70.75;;
57828;SDS011;43657;52.698;6.314;2023-09-12T01:06:45;87.57;;;66.35;;
57828;SDS011;43657;52.698;6.314;2023-09-12T01:09:11;142.98;;;79.25;;
57828;SDS011;43657;52.698;6.314;2023-09-12T01:11:37;66.07;;;59.00;;
57828;SDS011;43657;52.698;6.314;2023-09-12T01:14:03;68.50;;;61.42;;
57828;SDS011;43657;52.698;6.314;2023-09-12T01:16:29;303.05;;;99.57;;
57828;SDS011;43657;52.698;6.314;2023-09-12T01:18:54;72.70;;;60.40;;
57828;SDS011;43657;52.698;6.314;2023-09-12T01:27:13;71.88;;;64.07;;
57828;SDS011;43657;52.698;6.314;2023-09-12T01:29:39;83.22;;;67.15;;
57828;SDS011;43657;52.698;6.314;2023-09-12T01:32:07;149.95;;;80.45;;
57828;SDS011;43657;52.698;6.314;2023-09-12T01:34:34;146.52;;;87.03;;
57828;SDS011;43657;52.698;6.314;2023-09-12T01:37:00;104.68;;;71.38;;
57828;SDS011;43657;52.698;6.314;2023-09-12T01:39:25;93.40;;;68.43;;
57828;SDS011;43657;52.698;6.314;2023-09-12T01:41:51;75.82;;;63.60;;
57828;SDS011;43657;52.698;6.314;2023-09-12T01:44:19;94.38;;;69.40;;
57828;SDS011;43657;52.698;6.314;2023-09-12T01:46:49;149.88;;;71.10;;
57828;SDS011;43657;52.698;6.314;2023-09-12T01:49:18;78.60;;;64.50;;
57828;SDS011;43657;52.698;6.314;2023-09-12T01:51:46;70.82;;;62.05;;
57828;SDS011;43657;52.698;6.314;2023-09-12T01:54:12;374.65;;;105.60;;
57828;SDS011;43657;52.698;6.314;2023-09-12T01:56:39;296.90;;;93.35;;
57828;SDS011;43657;52.698;6.314;2023-09-12T01:59:05;342.42;;;102.05;;
57828;SDS011;43657;52.698;6.314;2023-09-12T02:01:31;288.25;;;90.15;;
57828;SDS011;43657;52.698;6.314;2023-09-12T02:03:57;88.40;;;60.97;;
57828;SDS011;43657;52.698;6.314;2023-09-12T02:06:22;98.07;;;66.85;;
57828;SDS011;43657;52.698;6.314;2023-09-12T02:08:48;65.88;;;58.78;;
57828;SDS011;43657;52.698;6.314;2023-09-12T02:11:14;233.10;;;86.00;;
57828;SDS011;43657;52.698;6.314;2023-09-12T02:13:39;61.92;;;55.30;;
57828;SDS011;43657;52.698;6.314;2023-09-12T02:16:05;69.38;;;54.50;;
57828;SDS011;43657;52.698;6.314;2023-09-12T02:18:30;108.50;;;61.03;;
57828;SDS011;43657;52.698;6.314;2023-09-12T02:20:57;81.38;;;58.58;;
57828;SDS011;43657;52.698;6.314;2023-09-12T02:23:23;55.90;;;50.33;;
57828;SDS011;43657;52.698;6.314;2023-09-12T02:25:49;63.28;;;50.88;;
57828;SDS011;43657;52.698;6.314;2023-09-12T02:28:15;60.03;;;51.75;;
57828;SDS011;43657;52.698;6.314;2023-09-12T02:30:40;59.83;;;53.42;;
57828;SDS011;43657;52.698;6.314;2023-09-12T02:33:06;73.60;;;56.30;;
57828;SDS011;43657;52.698;6.314;2023-09-12T02:35:31;87.15;;;62.58;;
57828;SDS011;43657;52.698;6.314;2023-09-12T02:37:57;371.88;;;98.25;;
57828;SDS011;43657;52.698;6.314;2023-09-12T02:40:23;113.75;;;72.70;;
57828;SDS011;43657;52.698;6.314;2023-09-12T02:42:49;646.67;;;124.78;;
57828;SDS011;43657;52.698;6.314;2023-09-12T02:45:14;245.35;;;88.68;;
57828;SDS011;43657;52.698;6.314;2023-09-12T02:47:40;128.68;;;76.85;;
57828;SDS011;43657;52.698;6.314;2023-09-12T02:50:08;471.65;;;110.80;;
57828;SDS011;43657;52.698;6.314;2023-09-12T02:52:34;254.00;;;90.60;;
57828;SDS011;43657;52.698;6.314;2023-09-12T02:54:59;1026.03;;;165.45;;
57828;SDS011;43657;52.698;6.314;2023-09-12T02:57:25;691.10;;;139.90;;
57828;SDS011;43657;52.698;6.314;2023-09-12T02:59:50;131.25;;;76.45;;
57828;SDS011;43657;52.698;6.314;2023-09-12T03:02:16;235.85;;;87.07;;
57828;SDS011;43657;52.698;6.314;2023-09-12T03:04:41;285.05;;;94.43;;
57828;SDS011;43657;52.698;6.314;2023-09-12T03:07:07;138.60;;;75.40;;
57828;SDS011;43657;52.698;6.314;2023-09-12T03:09:33;210.75;;;84.32;;
57828;SDS011;43657;52.698;6.314;2023-09-12T03:12:00;181.35;;;81.30;;
57828;SDS011;43657;52.698;6.314;2023-09-12T03:14:27;425.20;;;106.47;;
57828;SDS011;43657;52.698;6.314;2023-09-12T03:16:53;153.90;;;77.45;;
57828;SDS011;43657;52.698;6.314;2023-09-12T03:19:19;753.88;;;135.25;;
57828;SDS011;43657;52.698;6.314;2023-09-12T03:21:44;783.83;;;146.63;;
57828;SDS011;43657;52.698;6.314;2023-09-12T03:24:10;763.70;;;139.18;;
57828;SDS011;43657;52.698;6.314;2023-09-12T03:26:35;346.17;;;98.35;;
57828;SDS011;43657;52.698;6.314;2023-09-12T03:29:02;318.88;;;97.70;;
57828;SDS011;43657;52.698;6.314;2023-09-12T03:31:28;405.13;;;104.20;;
57828;SDS011;43657;52.698;6.314;2023-09-12T03:33:54;354.65;;;99.30;;
57828;SDS011;43657;52.698;6.314;2023-09-12T03:36:19;387.42;;;105.03;;
57828;SDS011;43657;52.698;6.314;2023-09-12T03:38:45;150.02;;;79.30;;
57828;SDS011;43657;52.698;6.314;2023-09-12T03:41:10;366.80;;;97.85;;
57828;SDS011;43657;52.698;6.314;2023-09-12T03:43:36;530.05;;;117.22;;
57828;SDS011;43657;52.698;6.314;2023-09-12T03:46:02;259.40;;;90.72;;
57828;SDS011;43657;52.698;6.314;2023-09-12T03:48:28;259.23;;;85.57;;
57828;SDS011;43657;52.698;6.314;2023-09-12T03:50:57;351.70;;;93.90;;
57828;SDS011;43657;52.698;6.314;2023-09-12T03:53:23;355.05;;;93.85;;
57828;SDS011;43657;52.698;6.314;2023-09-12T03:55:48;299.85;;;92.05;;
57828;SDS011;43657;52.698;6.314;2023-09-12T03:58:14;514.83;;;108.18;;
57828;SDS011;43657;52.698;6.314;2023-09-12T04:00:40;253.57;;;92.32;;
57828;SDS011;43657;52.698;6.314;2023-09-12T04:03:06;423.13;;;107.28;;
57828;SDS011;43657;52.698;6.314;2023-09-12T04:05:32;653.00;;;118.45;;
57828;SDS011;43657;52.698;6.314;2023-09-12T04:07:57;518.85;;;115.30;;
57828;SDS011;43657;52.698;6.314;2023-09-12T04:10:23;328.17;;;91.50;;
57828;SDS011;43657;52.698;6.314;2023-09-12T04:12:48;211.80;;;80.57;;
57828;SDS011;43657;52.698;6.314;2023-09-12T04:15:14;97.60;;;74.97;;
57828;SDS011;43657;52.698;6.314;2023-09-12T04:17:40;217.88;;;93.28;;
57828;SDS011;43657;52.698;6.314;2023-09-12T04:20:05;580.55;;;116.53;;
57828;SDS011;43657;52.698;6.314;2023-09-12T04:22:32;547.45;;;114.55;;
57828;SDS011;43657;52.698;6.314;2023-09-12T04:24:58;104.25;;;78.20;;
57828;SDS011;43657;52.698;6.314;2023-09-12T04:27:23;93.75;;;70.95;;
57828;SDS011;43657;52.698;6.314;2023-09-12T04:29:49;114.40;;;72.00;;
57828;SDS011;43657;52.698;6.314;2023-09-12T04:32:14;112.20;;;69.53;;
57828;SDS011;43657;52.698;6.314;2023-09-12T04:34:42;422.85;;;98.70;;
57828;SDS011;43657;52.698;6.314;2023-09-12T04:37:08;110.72;;;70.20;;
57828;SDS011;43657;52.698;6.314;2023-09-12T04:39:33;135.90;;;73.90;;
57828;SDS011;43657;52.698;6.314;2023-09-12T04:41:59;116.05;;;70.20;;
57828;SDS011;43657;52.698;6.314;2023-09-12T04:44:25;159.40;;;71.28;;
57828;SDS011;43657;52.698;6.314;2023-09-12T04:46:50;148.40;;;74.00;;
57828;SDS011;43657;52.698;6.314;2023-09-12T04:49:16;107.15;;;70.50;;
57828;SDS011;43657;52.698;6.314;2023-09-12T04:51:41;143.73;;;78.63;;
57828;SDS011;43657;52.698;6.314;2023-09-12T04:54:08;171.13;;;73.35;;
57828;SDS011;43657;52.698;6.314;2023-09-12T04:56:33;87.50;;;68.82;;
57828;SDS011;43657;52.698;6.314;2023-09-12T04:58:59;233.25;;;82.20;;
57828;SDS011;43657;52.698;6.314;2023-09-12T05:01:24;248.05;;;82.25;;
57828;SDS011;43657;52.698;6.314;2023-09-12T05:03:51;200.30;;;77.18;;
57828;SDS011;43657;52.698;6.314;2023-09-12T05:06:16;654.83;;;117.38;;
57828;SDS011;43657;52.698;6.314;2023-09-12T05:08:42;146.57;;;76.82;;
57828;SDS011;43657;52.698;6.314;2023-09-12T05:11:08;443.48;;;104.68;;
57828;SDS011;43657;52.698;6.314;2023-09-12T05:13:34;452.17;;;102.10;;
57828;SDS011;43657;52.698;6.314;2023-09-12T05:15:59;346.85;;;105.20;;
57828;SDS011;43657;52.698;6.314;2023-09-12T05:18:25;797.00;;;136.43;;
57828;SDS011;43657;52.698;6.314;2023-09-12T05:20:50;245.10;;;88.35;;
57828;SDS011;43657;52.698;6.314;2023-09-12T05:23:16;566.38;;;114.13;;
57828;SDS011;43657;52.698;6.314;2023-09-12T05:25:41;500.80;;;110.55;;
57828;SDS011;43657;52.698;6.314;2023-09-12T05:28:07;269.42;;;92.40;;
57828;SDS011;43657;52.698;6.314;2023-09-12T05:30:33;606.97;;;122.85;;
57828;SDS011;43657;52.698;6.314;2023-09-12T05:32:58;199.82;;;85.15;;
57828;SDS011;43657;52.698;6.314;2023-09-12T05:35:24;321.13;;;100.18;;
57828;SDS011;43657;52.698;6.314;2023-09-12T05:37:50;98.72;;;75.05;;
57828;SDS011;43657;52.698;6.314;2023-09-12T05:40:17;309.60;;;91.85;;
57828;SDS011;43657;52.698;6.314;2023-09-12T05:42:43;592.67;;;123.22;;
57828;SDS011;43657;52.698;6.314;2023-09-12T05:45:09;128.32;;;80.55;;
57828;SDS011;43657;52.698;6.314;2023-09-12T05:47:34;285.67;;;95.57;;
57828;SDS011;43657;52.698;6.314;2023-09-12T05:50:00;596.80;;;129.05;;
57828;SDS011;43657;52.698;6.314;2023-09-12T05:52:25;145.25;;;86.35;;
57828;SDS011;43657;52.698;6.314;2023-09-12T05:54:51;205.63;;;86.57;;
57828;SDS011;43657;52.698;6.314;2023-09-12T05:57:17;150.77;;;83.55;;
57828;SDS011;43657;52.698;6.314;2023-09-12T05:59:42;211.95;;;96.72;;
57828;SDS011;43657;52.698;6.314;2023-09-12T06:02:08;357.35;;;110.60;;
57828;SDS011;43657;52.698;6.314;2023-09-12T06:04:34;317.35;;;98.72;;
57828;SDS011;43657;52.698;6.314;2023-09-12T06:07:01;229.40;;;95.47;;
57828;SDS011;43657;52.698;6.314;2023-09-12T06:09:27;125.30;;;81.15;;
57828;SDS011;43657;52.698;6.314;2023-09-12T06:11:53;241.75;;;93.38;;
57828;SDS011;43657;52.698;6.314;2023-09-12T06:14:19;252.25;;;94.28;;
57828;SDS011;43657;52.698;6.314;2023-09-12T06:16:45;153.05;;;86.60;;
57828;SDS011;43657;52.698;6.314;2023-09-12T06:19:11;236.57;;;95.18;;
57828;SDS011;43657;52.698;6.314;2023-09-12T06:21:36;156.40;;;86.68;;
57828;SDS011;43657;52.698;6.314;2023-09-12T06:24:12;164.23;;;87.07;;
57828;SDS011;43657;52.698;6.314;2023-09-12T06:26:39;179.55;;;84.63;;
57828;SDS011;43657;52.698;6.314;2023-09-12T06:29:05;231.88;;;92.13;;
57828;SDS011;43657;52.698;6.314;2023-09-12T06:31:31;299.63;;;101.50;;
57828;SDS011;43657;52.698;6.314;2023-09-12T06:33:57;212.00;;;95.95;;
57828;SDS011;43657;52.698;6.314;2023-09-12T06:36:24;305.63;;;95.22;;
57828;SDS011;43657;52.698;6.314;2023-09-12T06:38:50;348.52;;;104.38;;
57828;SDS011;43657;52.698;6.314;2023-09-12T06:41:18;258.67;;;101.20;;
57828;SDS011;43657;52.698;6.314;2023-09-12T06:43:44;231.05;;;101.00;;
57828;SDS011;43657;52.698;6.314;2023-09-12T06:46:10;213.63;;;96.75;;
57828;SDS011;43657;52.698;6.314;2023-09-12T06:48:35;246.55;;;101.55;;
57828;SDS011;43657;52.698;6.314;2023-09-12T06:51:04;176.48;;;95.63;;
57828;SDS011;43657;52.698;6.314;2023-09-12T06:53:31;172.70;;;94.95;;
57828;SDS011;43657;52.698;6.314;2023-09-12T06:55:56;188.18;;;99.65;;
57828;SDS011;43657;52.698;6.314;2023-09-12T06:58:23;177.43;;;93.68;;
57828;SDS011;43657;52.698;6.314;2023-09-12T07:00:49;128.32;;;88.60;;
57828;SDS011;43657;52.698;6.314;2023-09-12T07:03:15;153.43;;;91.90;;
57828;SDS011;43657;52.698;6.314;2023-09-12T07:05:41;176.05;;;94.13;;
57828;SDS011;43657;52.698;6.314;2023-09-12T07:08:07;222.55;;;99.45;;
57828;SDS011;43657;52.698;6.314;2023-09-12T07:10:33;143.60;;;95.05;;
57828;SDS011;43657;52.698;6.314;2023-09-12T07:12:59;265.88;;;105.80;;
57828;SDS011;43657;52.698;6.314;2023-09-12T07:15:25;359.25;;;117.05;;
57828;SDS011;43657;52.698;6.314;2023-09-12T07:17:50;272.10;;;108.35;;
57828;SDS011;43657;52.698;6.314;2023-09-12T07:20:16;194.23;;;97.18;;
57828;SDS011;43657;52.698;6.314;2023-09-12T07:22:43;239.57;;;100.43;;
57828;SDS011;43657;52.698;6.314;2023-09-12T07:25:08;149.10;;;92.03;;
57828;SDS011;43657;52.698;6.314;2023-09-12T07:27:36;147.20;;;90.55;;
57828;SDS011;43657;52.698;6.314;2023-09-12T07:30:03;213.30;;;97.80;;
57828;SDS011;43657;52.698;6.314;2023-09-12T07:32:29;199.82;;;92.68;;
57828;SDS011;43657;52.698;6.314;2023-09-12T07:34:55;127.53;;;80.55;;
57828;SDS011;43657;52.698;6.314;2023-09-12T07:37:20;126.03;;;82.47;;
57828;SDS011;43657;52.698;6.314;2023-09-12T07:39:46;167.57;;;88.07;;
57828;SDS011;43657;52.698;6.314;2023-09-12T07:42:11;132.57;;;85.25;;
57828;SDS011;43657;52.698;6.314;2023-09-12T07:44:37;122.80;;;82.32;;
57828;SDS011;43657;52.698;6.314;2023-09-12T07:47:02;112.72;;;81.28;;
57828;SDS011;43657;52.698;6.314;2023-09-12T07:49:28;154.43;;;88.75;;
57828;SDS011;43657;52.698;6.314;2023-09-12T07:51:54;92.50;;;74.68;;
57828;SDS011;43657;52.698;6.314;2023-09-12T07:54:22;132.88;;;83.40;;
57828;SDS011;43657;52.698;6.314;2023-09-12T07:56:47;103.60;;;79.07;;
57828;SDS011;43657;52.698;6.314;2023-09-12T07:59:13;108.93;;;80.45;;
57828;SDS011;43657;52.698;6.314;2023-09-12T08:01:39;99.22;;;76.68;;
57828;SDS011;43657;52.698;6.314;2023-09-12T08:04:05;107.53;;;79.00;;
57828;SDS011;43657;52.698;6.314;2023-09-12T08:06:32;124.20;;;84.65;;
57828;SDS011;43657;52.698;6.314;2023-09-12T08:08:58;112.22;;;83.25;;
57828;SDS011;43657;52.698;6.314;2023-09-12T08:11:23;110.32;;;78.03;;
57828;SDS011;43657;52.698;6.314;2023-09-12T08:13:49;92.55;;;74.88;;
57828;SDS011;43657;52.698;6.314;2023-09-12T08:16:15;86.18;;;71.20;;
57828;SDS011;43657;52.698;6.314;2023-09-12T08:18:41;100.03;;;78.25;;
57828;SDS011;43657;52.698;6.314;2023-09-12T08:21:07;101.15;;;76.10;;
57828;SDS011;43657;52.698;6.314;2023-09-12T08:23:33;89.60;;;73.72;;
57828;SDS011;43657;52.698;6.314;2023-09-12T08:25:58;87.45;;;73.68;;
57828;SDS011;43657;52.698;6.314;2023-09-12T08:28:24;81.65;;;71.32;;
57828;SDS011;43657;52.698;6.314;2023-09-12T08:30:50;100.55;;;78.80;;
57828;SDS011;43657;52.698;6.314;2023-09-12T08:33:16;80.75;;;70.03;;
57828;SDS011;43657;52.698;6.314;2023-09-12T08:35:42;71.00;;;63.67;;
57828;SDS011;43657;52.698;6.314;2023-09-12T08:38:08;80.50;;;71.75;;
57828;SDS011;43657;52.698;6.314;2023-09-12T08:40:37;71.40;;;63.90;;
57828;SDS011;43657;52.698;6.314;2023-09-12T08:43:02;66.05;;;59.30;;
57828;SDS011;43657;52.698;6.314;2023-09-12T08:45:28;72.63;;;64.85;;
57828;SDS011;43657;52.698;6.314;2023-09-12T08:47:55;73.95;;;65.82;;
57828;SDS011;43657;52.698;6.314;2023-09-12T08:50:27;65.50;;;58.95;;
57828;SDS011;43657;52.698;6.314;2023-09-12T08:52:56;67.93;;;61.03;;
57828;SDS011;43657;52.698;6.314;2023-09-12T08:55:21;63.92;;;57.67;;
57828;SDS011;43657;52.698;6.314;2023-09-12T08:57:47;62.30;;;56.08;;
57828;SDS011;43657;52.698;6.314;2023-09-12T09:00:16;66.10;;;59.67;;
57828;SDS011;43657;52.698;6.314;2023-09-12T09:02:42;66.25;;;59.72;;
57828;SDS011;43657;52.698;6.314;2023-09-12T09:05:09;60.75;;;54.85;;
57828;SDS011;43657;52.698;6.314;2023-09-12T09:07:39;59.60;;;53.92;;
57828;SDS011;43657;52.698;6.314;2023-09-12T09:10:07;61.00;;;55.17;;
57828;SDS011;43657;52.698;6.314;2023-09-12T09:12:35;62.38;;;56.50;;
57828;SDS011;43657;52.698;6.314;2023-09-12T09:18:06;60.13;;;54.45;;
57828;SDS011;43657;52.698;6.314;2023-09-12T09:20:32;60.45;;;54.55;;
57828;SDS011;43657;52.698;6.314;2023-09-12T09:25:34;56.88;;;51.63;;
57828;SDS011;43657;52.698;6.314;2023-09-12T09:28:03;57.30;;;52.08;;
57828;SDS011;43657;52.698;6.314;2023-09-12T09:30:39;58.22;;;52.83;;
57828;SDS011;43657;52.698;6.314;2023-09-12T09:33:10;52.95;;;48.13;;
57828;SDS011;43657;52.698;6.314;2023-09-12T09:35:36;59.70;;;54.15;;
57828;SDS011;43657;52.698;6.314;2023-09-12T09:38:04;57.17;;;52.00;;
57828;SDS011;43657;52.698;6.314;2023-09-12T09:40:31;52.78;;;48.10;;
57828;SDS011;43657;52.698;6.314;2023-09-12T09:43:01;53.67;;;48.88;;
57828;SDS011;43657;52.698;6.314;2023-09-12T09:45:29;56.15;;;51.13;;
57828;SDS011;43657;52.698;6.314;2023-09-12T09:47:59;52.50;;;47.72;;
57828;SDS011;43657;52.698;6.314;2023-09-12T09:50:29;54.35;;;49.65;;
57828;SDS011;43657;52.698;6.314;2023-09-12T09:52:55;50.67;;;46.45;;
57828;SDS011;43657;52.698;6.314;2023-09-12T09:55:25;47.85;;;43.92;;
57828;SDS011;43657;52.698;6.314;2023-09-12T10:03:36;43.65;;;39.88;;
57828;SDS011;43657;52.698;6.314;2023-09-12T10:06:22;42.28;;;38.60;;
57828;SDS011;43657;52.698;6.314;2023-09-12T10:12:01;43.00;;;39.47;;
57828;SDS011;43657;52.698;6.314;2023-09-12T10:14:33;45.85;;;41.78;;
57828;SDS011;43657;52.698;6.314;2023-09-12T10:17:01;44.80;;;41.00;;
57828;SDS011;43657;52.698;6.314;2023-09-12T10:22:28;41.67;;;38.28;;
57828;SDS011;43657;52.698;6.314;2023-09-12T10:25:05;40.88;;;37.20;;
57828;SDS011;43657;52.698;6.314;2023-09-12T10:27:53;40.35;;;36.95;;
57828;SDS011;43657;52.698;6.314;2023-09-12T10:30:20;43.20;;;39.42;;
57828;SDS011;43657;52.698;6.314;2023-09-12T10:32:47;42.13;;;38.72;;
57828;SDS011;43657;52.698;6.314;2023-09-12T10:35:14;39.88;;;36.47;;
57828;SDS011;43657;52.698;6.314;2023-09-12T10:37:41;42.85;;;39.10;;
57828;SDS011;43657;52.698;6.314;2023-09-12T10:48:35;39.13;;;35.70;;
57828;SDS011;43657;52.698;6.314;2023-09-12T10:51:51;35.38;;;32.25;;
57828;SDS011;43657;52.698;6.314;2023-09-12T11:09:44;31.42;;;28.50;;
57828;SDS011;43657;52.698;6.314;2023-09-12T11:13:02;30.27;;;27.67;;
57828;SDS011;43657;52.698;6.314;2023-09-12T11:19:57;27.15;;;24.52;;
57828;SDS011;43657;52.698;6.314;2023-09-12T11:30:20;23.42;;;21.35;;
57828;SDS011;43657;52.698;6.314;2023-09-12T11:37:58;25.60;;;23.30;;
57828;SDS011;43657;52.698;6.314;2023-09-12T11:44:43;20.48;;;18.27;;
57828;SDS011;43657;52.698;6.314;2023-09-12T11:48:12;22.33;;;20.30;;
57828;SDS011;43657;52.698;6.314;2023-09-12T11:50:56;19.88;;;17.98;;
57828;SDS011;43657;52.698;6.314;2023-09-12T11:53:49;18.00;;;16.27;;
57828;SDS011;43657;52.698;6.314;2023-09-12T11:59:56;20.50;;;18.63;;
57828;SDS011;43657;52.698;6.314;2023-09-12T12:14:56;16.80;;;15.18;;
57828;SDS011;43657;52.698;6.314;2023-09-12T12:22:06;13.50;;;12.10;;
57828;SDS011;43657;52.698;6.314;2023-09-12T12:31:54;14.40;;;13.10;;
57828;SDS011;43657;52.698;6.314;2023-09-12T12:38:12;15.07;;;13.50;;
57828;SDS011;43657;52.698;6.314;2023-09-12T12:41:29;17.27;;;15.52;;
57828;SDS011;43657;52.698;6.314;2023-09-12T12:54:42;15.40;;;14.00;;
57828;SDS011;43657;52.698;6.314;2023-09-12T13:01:41;14.88;;;13.38;;
57828;SDS011;43657;52.698;6.314;2023-09-12T13:04:48;14.20;;;12.80;;
57828;SDS011;43657;52.698;6.314;2023-09-12T13:24:36;11.05;;;8.05;;
57828;SDS011;43657;52.698;6.314;2023-09-12T13:31:00;8.57;;;6.68;;
57828;SDS011;43657;52.698;6.314;2023-09-12T13:33:52;7.28;;;6.47;;
57828;SDS011;43657;52.698;6.314;2023-09-12T13:40:11;6.78;;;4.30;;
57828;SDS011;43657;52.698;6.314;2023-09-12T13:46:42;6.10;;;5.38;;
57828;SDS011;43657;52.698;6.314;2023-09-12T13:49:59;9.20;;;5.60;;
57828;SDS011;43657;52.698;6.314;2023-09-12T13:53:33;8.20;;;6.18;;
57828;SDS011;43657;52.698;6.314;2023-09-12T14:00:34;8.63;;;7.05;;
57828;SDS011;43657;52.698;6.314;2023-09-12T14:03:45;7.50;;;6.45;;
57828;SDS011;43657;52.698;6.314;2023-09-12T14:10:15;13.13;;;11.90;;
57828;SDS011;43657;52.698;6.314;2023-09-12T14:12:56;12.68;;;11.40;;
57828;SDS011;43657;52.698;6.314;2023-09-12T14:15:36;11.38;;;10.18;;
57828;SDS011;43657;52.698;6.314;2023-09-12T14:18:02;11.75;;;10.65;;
57828;SDS011;43657;52.698;6.314;2023-09-12T14:20:28;11.98;;;9.68;;
57828;SDS011;43657;52.698;6.314;2023-09-12T14:23:12;10.75;;;8.95;;
57828;SDS011;43657;52.698;6.314;2023-09-12T14:25:38;10.00;;;9.00;;
57828;SDS011;43657;52.698;6.314;2023-09-12T14:28:12;10.63;;;8.33;;
57828;SDS011;43657;52.698;6.314;2023-09-12T14:30:56;9.13;;;8.10;;
57828;SDS011;43657;52.698;6.314;2023-09-12T14:33:32;9.95;;;8.45;;
57828;SDS011;43657;52.698;6.314;2023-09-12T14:36:17;15.77;;;14.10;;
57828;SDS011;43657;52.698;6.314;2023-09-12T14:39:01;15.88;;;14.27;;
57828;SDS011;43657;52.698;6.314;2023-09-12T14:49:11;16.27;;;14.68;;
57828;SDS011;43657;52.698;6.314;2023-09-12T15:02:19;14.10;;;12.13;;
57828;SDS011;43657;52.698;6.314;2023-09-12T15:05:11;12.93;;;11.63;;
57828;SDS011;43657;52.698;6.314;2023-09-12T15:10:51;11.95;;;10.45;;
57828;SDS011;43657;52.698;6.314;2023-09-12T15:13:30;11.60;;;9.85;;
57828;SDS011;43657;52.698;6.314;2023-09-12T15:34:25;8.98;;;7.32;;
57828;SDS011;43657;52.698;6.314;2023-09-12T15:37:54;7.78;;;6.43;;
57828;SDS011;43657;52.698;6.314;2023-09-12T15:41:04;11.85;;;10.68;;
57828;SDS011;43657;52.698;6.314;2023-09-12T15:43:58;11.52;;;10.32;;
57828;SDS011;43657;52.698;6.314;2023-09-12T15:46:41;11.63;;;9.82;;
57828;SDS011;43657;52.698;6.314;2023-09-12T15:49:39;13.23;;;11.85;;
57828;SDS011;43657;52.698;6.314;2023-09-12T15:52:25;14.48;;;12.13;;
57828;SDS011;43657;52.698;6.314;2023-09-12T15:55:10;13.63;;;12.25;;
57828;SDS011;43657;52.698;6.314;2023-09-12T15:58:01;16.10;;;14.50;;
57828;SDS011;43657;52.698;6.314;2023-09-12T16:01:35;16.65;;;15.10;;
57828;SDS011;43657;52.698;6.314;2023-09-12T16:04:21;16.10;;;14.52;;
57828;SDS011;43657;52.698;6.314;2023-09-12T16:08:07;17.10;;;15.40;;
57828;SDS011;43657;52.698;6.314;2023-09-12T16:15:30;16.00;;;14.63;;
57828;SDS011;43657;52.698;6.314;2023-09-12T16:18:33;15.60;;;14.10;;
57828;SDS011;43657;52.698;6.314;2023-09-12T16:21:51;15.05;;;13.45;;
57828;SDS011;43657;52.698;6.314;2023-09-12T16:25:50;15.45;;;14.05;;
57828;SDS011;43657;52.698;6.314;2023-09-12T16:28:45;15.75;;;14.25;;
57828;SDS011;43657;52.698;6.314;2023-09-12T16:31:27;16.15;;;14.57;;
57828;SDS011;43657;52.698;6.314;2023-09-12T16:34:08;15.68;;;14.27;;
57828;SDS011;43657;52.698;6.314;2023-09-12T16:37:03;15.70;;;14.30;;
57828;SDS011;43657;52.698;6.314;2023-09-12T16:42:19;15.40;;;13.77;;
57828;SDS011;43657;52.698;6.314;2023-09-12T16:45:14;14.23;;;12.93;;
57828;SDS011;43657;52.698;6.314;2023-09-12T16:47:39;14.80;;;12.73;;
57828;SDS011;43657;52.698;6.314;2023-09-12T16:50:05;12.10;;;10.82;;
57828;SDS011;43657;52.698;6.314;2023-09-12T16:52:31;11.73;;;10.50;;
57828;SDS011;43657;52.698;6.314;2023-09-12T16:54:56;10.38;;;9.38;;
57828;SDS011;43657;52.698;6.314;2023-09-12T16:57:22;10.57;;;9.50;;
57828;SDS011;43657;52.698;6.314;2023-09-12T16:59:48;10.65;;;9.18;;
57828;SDS011;43657;52.698;6.314;2023-09-12T17:02:13;10.15;;;9.02;;
57828;SDS011;43657;52.698;6.314;2023-09-12T17:04:39;10.45;;;9.45;;
57828;SDS011;43657;52.698;6.314;2023-09-12T17:07:07;9.30;;;8.40;;
57828;SDS011;43657;52.698;6.314;2023-09-12T17:09:33;7.75;;;6.88;;
57828;SDS011;43657;52.698;6.314;2023-09-12T17:11:59;8.32;;;6.90;;
57828;SDS011;43657;52.698;6.314;2023-09-12T17:14:24;8.32;;;7.20;;
57828;SDS011;43657;52.698;6.314;2023-09-12T17:16:50;7.88;;;7.03;;
57828;SDS011;43657;52.698;6.314;2023-09-12T17:19:16;8.00;;;7.20;;
57828;SDS011;43657;52.698;6.314;2023-09-12T17:21:42;7.75;;;6.95;;
57828;SDS011;43657;52.698;6.314;2023-09-12T17:24:07;8.95;;;7.78;;
57828;SDS011;43657;52.698;6.314;2023-09-12T17:26:33;8.63;;;6.90;;
57828;SDS011;43657;52.698;6.314;2023-09-12T17:28:58;7.95;;;7.07;;
57828;SDS011;43657;52.698;6.314;2023-09-12T17:31:24;8.63;;;7.72;;
57828;SDS011;43657;52.698;6.314;2023-09-12T17:33:50;8.35;;;7.57;;
57828;SDS011;43657;52.698;6.314;2023-09-12T17:36:16;8.75;;;7.90;;
57828;SDS011;43657;52.698;6.314;2023-09-12T17:38:42;9.25;;;8.30;;
57828;SDS011;43657;52.698;6.314;2023-09-12T17:41:07;11.90;;;10.77;;
57828;SDS011;43657;52.698;6.314;2023-09-12T17:43:33;10.65;;;9.75;;
57828;SDS011;43657;52.698;6.314;2023-09-12T17:46:01;11.10;;;10.10;;
57828;SDS011;43657;52.698;6.314;2023-09-12T17:48:26;12.13;;;10.93;;
57828;SDS011;43657;52.698;6.314;2023-09-12T17:50:52;12.13;;;11.02;;
57828;SDS011;43657;52.698;6.314;2023-09-12T17:53:18;14.32;;;12.95;;
57828;SDS011;43657;52.698;6.314;2023-09-12T17:55:44;12.50;;;11.15;;